Latest METARs, TAFs and NOTAMs for ETSI


---------------------------------------------------------------------------
	(OBSERVATIONS)
ETSI 221020Z 26017KT 9999 FEW020 BKN030 11/06 Q1013 BLU BLU=
ETSI 220920Z 25016G29KT 9999 FEW017 BKN030 BKN050 11/06 Q1013
    BLU BLU=
ETSI 220820Z 25013KT 9999 FEW015 BKN050 10/07 Q1013 BLU BLU=
---------------------------------------------------------------------------
	(FC)
TAF ETSI 220824Z 2209/2218 26015G25KT 9999 NSW BKN030=
---------------------------------------------------------------------------
	(TERMINAL AREA FORECAST)
ETSI 220824Z 2209/2218 26015G25KT 9999 NSW BKN030=
---------------------------------------------------------------------------
	(NOTAMS)


ETSI P1125/17 RWY25L CABLE NO.1 AND NO.3 OUT OF SERVICE. 10 FEB
    07:40 2017 UNTIL 28 APR 12:00 2017. CREATED: 10 FEB 07:48
    2017

ETSI P1126/17 PAPI 25L LEFT SIDE UNRELIABLE. 10 FEB 07:42 2017
    UNTIL 28 APR 12:00 2017. CREATED: 10 FEB 07:49 2017

ETSI P1127/17 RWY25R CABLE NO.2 OUT OF SERVICE. 10 FEB 07:42
    2017 UNTIL 28 APR 12:00 2017. CREATED: 10 FEB 07:50 2017

ETSI P1317/17 AERODROME CLOSED EXCEPT CIVIL TRAFFIC WED 0800-1100
    THU 0800-1100. 22 FEB 08:00 2017 UNTIL 23 FEB 11:00 2017.
    CREATED: 20 FEB 11:47 2017

ETSI P1318/17 AERODROME CLOSED EXCEPT CIVIL TRAFFIC. 27 FEB 08:00
    2017 UNTIL 28 FEB 16:00 2017. CREATED: 20 FEB 11:50 2017

ETSI P7934/16 PAPI 25R RIGHT SIDE NOT FLIGHT CHECKED. 29 NOV
    13:23 2016 UNTIL 24 FEB 13:00 2017. CREATED: 29 NOV 13:32
    2016

ETSI P7935/16 TACAN APCH RWY07R SUSPENDED. 29 NOV 13:24 2016
    UNTIL 24 FEB 13:00 2017. CREATED: 29 NOV 13:33 2016

ETSI P7936/16 PAR RWY25L/07R OUT OF SERVICE. 29 NOV 13:25 2016
    UNTIL 24 FEB 13:00 2017. CREATED: 29 NOV 13:35 2016

ETSI P7937/16 PAR RWY25R/07L OUT OF SERVICE. 29 NOV 13:26 2016
    UNTIL 24 FEB 13:00 2017. CREATED: 29 NOV 13:36 2016

ETSI P7938/16 NO SRA POSSIBLE. 29 NOV 13:27 2016 UNTIL 24 FEB
    13:00 2017. CREATED: 29 NOV 13:37 2016

ETSI P7939/16 LIMITED RADAR COVERAGE BELOW 5000FT MSL. DETAILED
    INFORMATION BY INGO RADAR. 29 NOV 13:27 2016 UNTIL 24 FEB
    13:00 2017. CREATED: 29 NOV 13:38 2016

ETSI P8437/16 AD MIL OPENING HOURS CHANGED TO: MON-THU 0800-1500
    FR 0800-1200. 09 JAN 08:00 2017 UNTIL 24 MAR 12:00 2017.
    CREATED: 19 DEC 07:58 2016

---------------------------------------------------------------------------